Time,TemperatureF,DewpointF,PressureIn,WindDirection,WindDirectionDegrees,WindSpeedMPH,WindSpeedGustMPH,Humidity,HourlyPrecipIn,Conditions,Clouds,dailyrainin,SoftwareType,DateUTC
2013-02-01 07:53:00,49.5,46.2,30.00,East,90,0.0,0.0,89,0.00,,,0.00,,2013-02-01 06:53:00,
2013-02-01 07:58:00,49.5,46.2,30.00,East,90,0.4,0.0,89,0.00,,,0.00,,2013-02-01 06:58:00,
2013-02-01 08:03:00,49.5,46.2,30.00,SSE,157,0.4,0.8,89,0.00,,,0.00,,2013-02-01 07:03:00,
2013-02-01 08:08:00,49.5,46.2,30.00,East,90,0.0,0.0,89,0.00,,,0.00,,2013-02-01 07:08:00,
2013-02-01 08:13:00,49.5,46.2,30.00,East,90,0.0,0.0,89,0.00,,,0.00,,2013-02-01 07:13:00,
2013-02-01 14:48:00,57.9,52.7,29.85,South,180,0.4,0.0,83,0.00,,,0.00,,2013-02-01 13:48:00,
2013-02-01 14:53:00,57.9,53.1,29.82,SW,225,0.0,0.4,84,0.00,,,0.00,,2013-02-01 13:53:00,
2013-02-01 14:58:00,57.9,52.7,29.82,SE,135,0.4,0.8,83,0.00,,,0.00,,2013-02-01 13:58:00,
2013-02-01 15:03:00,57.9,52.7,29.82,SSE,157,0.8,4.0,83,0.00,,,0.00,,2013-02-01 14:03:00,
2013-02-01 15:08:00,58.1,52.9,29.82,South,180,0.4,1.7,83,0.00,,,0.00,,2013-02-01 14:08:00,
2013-02-01 15:13:00,58.1,52.9,29.82,West,270,0.0,0.4,83,0.00,,,0.00,,2013-02-01 14:13:00,
2013-02-01 15:23:00,58.1,52.9,29.79,SE,135,0.0,0.8,83,0.00,,,0.00,,2013-02-01 14:23:00,
2013-02-01 15:28:00,58.1,52.9,29.79,East,90,0.4,0.0,83,0.00,,,0.00,,2013-02-01 14:28:00,
2013-02-01 15:33:00,58.3,53.1,29.79,NW,315,0.0,0.0,83,0.00,,,0.00,,2013-02-01 14:33:00,
2013-02-01 15:38:00,58.1,52.9,29.79,NW,315,0.4,0.0,83,0.00,,,0.00,,2013-02-01 14:38:00,
2013-02-01 15:43:00,58.1,52.9,29.79,South,180,0.8,1.7,83,0.00,,,0.00,,2013-02-01 14:43:00,
2013-02-01 15:48:00,58.1,52.9,29.79,South,180,0.8,1.7,83,0.00,,,0.00,,2013-02-01 14:48:00,
2013-02-01 15:53:00,57.9,52.7,29.79,South,180,0.0,0.4,83,0.00,,,0.00,,2013-02-01 14:53:00,
2013-02-01 15:58:00,57.7,52.2,29.79,South,180,0.8,1.7,82,0.00,,,0.00,,2013-02-01 14:58:00,
2013-02-01 16:03:00,57.6,52.0,29.79,South,180,0.0,0.0,82,0.00,,,0.00,,2013-02-01 15:03:00,